sensor_id;sensor_type;location;lat;lon;timestamp;temperature;humidity
1025;DHT22;501;48.214;11.350;2023-04-06T00:01:31;1.50;32.00
1025;DHT22;501;48.214;11.350;2023-04-06T00:03:57;1.40;32.50
1025;DHT22;501;48.214;11.350;2023-04-06T00:06:23;1.40;32.20
1025;DHT22;501;48.214;11.350;2023-04-06T00:08:49;1.40;31.70
1025;DHT22;501;48.214;11.350;2023-04-06T00:11:14;1.40;31.90
1025;DHT22;501;48.214;11.350;2023-04-06T00:13:42;1.40;32.30
1025;DHT22;501;48.214;11.350;2023-04-06T00:16:07;1.30;32.00
1025;DHT22;501;48.214;11.350;2023-04-06T00:18:33;1.30;31.60
1025;DHT22;501;48.214;11.350;2023-04-06T00:20:59;1.30;32.30
1025;DHT22;501;48.214;11.350;2023-04-06T00:23:25;1.30;31.90
1025;DHT22;501;48.214;11.350;2023-04-06T00:25:50;1.30;32.10
1025;DHT22;501;48.214;11.350;2023-04-06T00:28:16;1.20;32.90
1025;DHT22;501;48.214;11.350;2023-04-06T00:30:42;1.20;33.70
1025;DHT22;501;48.214;11.350;2023-04-06T00:33:08;1.20;32.90
1025;DHT22;501;48.214;11.350;2023-04-06T00:35:34;1.10;32.60
1025;DHT22;501;48.214;11.350;2023-04-06T00:38:00;1.10;32.80
1025;DHT22;501;48.214;11.350;2023-04-06T00:40:25;1.10;33.60
1025;DHT22;501;48.214;11.350;2023-04-06T00:42:54;1.10;33.60
1025;DHT22;501;48.214;11.350;2023-04-06T00:45:20;1.00;33.50
1025;DHT22;501;48.214;11.350;2023-04-06T00:47:45;1.10;33.10
1025;DHT22;501;48.214;11.350;2023-04-06T00:50:11;1.00;32.70
1025;DHT22;501;48.214;11.350;2023-04-06T00:52:37;1.00;33.00
1025;DHT22;501;48.214;11.350;2023-04-06T00:55:03;1.00;33.10
1025;DHT22;501;48.214;11.350;2023-04-06T00:57:29;1.00;33.30
1025;DHT22;501;48.214;11.350;2023-04-06T00:59:56;1.00;33.20
1025;DHT22;501;48.214;11.350;2023-04-06T01:02:21;1.00;32.40
1025;DHT22;501;48.214;11.350;2023-04-06T01:04:48;1.00;32.40
1025;DHT22;501;48.214;11.350;2023-04-06T01:07:14;1.00;32.30
1025;DHT22;501;48.214;11.350;2023-04-06T01:09:39;0.90;32.80
1025;DHT22;501;48.214;11.350;2023-04-06T01:12:07;0.90;32.70
1025;DHT22;501;48.214;11.350;2023-04-06T01:14:33;0.90;32.40
1025;DHT22;501;48.214;11.350;2023-04-06T01:17:00;0.90;32.20
1025;DHT22;501;48.214;11.350;2023-04-06T01:19:26;0.90;32.10
1025;DHT22;501;48.214;11.350;2023-04-06T01:21:52;0.90;32.40
1025;DHT22;501;48.214;11.350;2023-04-06T01:24:19;0.80;32.40
1025;DHT22;501;48.214;11.350;2023-04-06T01:26:45;0.80;32.40
1025;DHT22;501;48.214;11.350;2023-04-06T01:29:11;0.80;32.30
1025;DHT22;501;48.214;11.350;2023-04-06T01:31:37;0.80;32.30
1025;DHT22;501;48.214;11.350;2023-04-06T01:34:03;0.70;32.00
1025;DHT22;501;48.214;11.350;2023-04-06T01:36:29;0.70;32.50
1025;DHT22;501;48.214;11.350;2023-04-06T01:38:55;0.70;32.70
1025;DHT22;501;48.214;11.350;2023-04-06T01:41:20;0.70;32.60
1025;DHT22;501;48.214;11.350;2023-04-06T01:43:48;0.70;32.60
1025;DHT22;501;48.214;11.350;2023-04-06T01:46:15;0.60;32.40
1025;DHT22;501;48.214;11.350;2023-04-06T01:48:41;0.60;32.60
1025;DHT22;501;48.214;11.350;2023-04-06T01:51:06;0.60;32.70
1025;DHT22;501;48.214;11.350;2023-04-06T01:53:32;0.60;32.80
1025;DHT22;501;48.214;11.350;2023-04-06T01:55:58;0.60;33.20
1025;DHT22;501;48.214;11.350;2023-04-06T01:58:23;0.60;33.20
1025;DHT22;501;48.214;11.350;2023-04-06T02:00:49;0.60;33.20
1025;DHT22;501;48.214;11.350;2023-04-06T02:03:15;0.60;33.20
1025;DHT22;501;48.214;11.350;2023-04-06T02:05:40;0.60;33.20
1025;DHT22;501;48.214;11.350;2023-04-06T02:08:07;0.50;33.10
1025;DHT22;501;48.214;11.350;2023-04-06T02:10:34;0.50;33.00
1025;DHT22;501;48.214;11.350;2023-04-06T02:12:59;0.50;32.70
1025;DHT22;501;48.214;11.350;2023-04-06T02:15:26;0.50;32.70
1025;DHT22;501;48.214;11.350;2023-04-06T02:17:52;0.50;32.80
1025;DHT22;501;48.214;11.350;2023-04-06T02:20:18;0.50;32.80
1025;DHT22;501;48.214;11.350;2023-04-06T02:22:43;0.40;33.00
1025;DHT22;501;48.214;11.350;2023-04-06T02:25:09;0.40;33.00
1025;DHT22;501;48.214;11.350;2023-04-06T02:27:35;0.40;33.00
1025;DHT22;501;48.214;11.350;2023-04-06T02:30:02;0.40;33.10
1025;DHT22;501;48.214;11.350;2023-04-06T02:32:28;0.30;33.00
1025;DHT22;501;48.214;11.350;2023-04-06T02:34:53;0.30;32.90
1025;DHT22;501;48.214;11.350;2023-04-06T02:37:20;0.30;32.90
1025;DHT22;501;48.214;11.350;2023-04-06T02:39:46;0.30;32.90
1025;DHT22;501;48.214;11.350;2023-04-06T02:42:12;0.30;33.00
1025;DHT22;501;48.214;11.350;2023-04-06T02:44:37;0.30;32.90
1025;DHT22;501;48.214;11.350;2023-04-06T02:47:03;0.30;33.00
1025;DHT22;501;48.214;11.350;2023-04-06T02:49:29;0.20;33.40
1025;DHT22;501;48.214;11.350;2023-04-06T02:51:54;0.20;33.60
1025;DHT22;501;48.214;11.350;2023-04-06T02:54:20;0.20;33.70
1025;DHT22;501;48.214;11.350;2023-04-06T02:56:46;0.10;33.70
1025;DHT22;501;48.214;11.350;2023-04-06T02:59:12;0.10;33.80
1025;DHT22;501;48.214;11.350;2023-04-06T03:01:37;0.10;33.50
1025;DHT22;501;48.214;11.350;2023-04-06T03:04:03;0.10;32.90
1025;DHT22;501;48.214;11.350;2023-04-06T03:06:28;0.10;32.80
1025;DHT22;501;48.214;11.350;2023-04-06T03:08:55;0.10;32.80
1025;DHT22;501;48.214;11.350;2023-04-06T03:11:21;0.10;32.80
1025;DHT22;501;48.214;11.350;2023-04-06T03:13:46;0.10;32.80
1025;DHT22;501;48.214;11.350;2023-04-06T03:16:12;0.10;32.80
1025;DHT22;501;48.214;11.350;2023-04-06T03:18:38;0.00;33.70
1025;DHT22;501;48.214;11.350;2023-04-06T03:21:04;0.00;34.30
1025;DHT22;501;48.214;11.350;2023-04-06T03:23:29;0.00;34.50
1025;DHT22;501;48.214;11.350;2023-04-06T03:25:55;0.00;35.20
1025;DHT22;501;48.214;11.350;2023-04-06T03:28:21;-0.10;34.40
1025;DHT22;501;48.214;11.350;2023-04-06T03:30:46;-0.10;34.50
1025;DHT22;501;48.214;11.350;2023-04-06T03:33:12;-0.10;34.30
1025;DHT22;501;48.214;11.350;2023-04-06T03:35:38;-0.10;34.00
1025;DHT22;501;48.214;11.350;2023-04-06T03:38:04;-0.10;33.90
1025;DHT22;501;48.214;11.350;2023-04-06T03:40:32;-0.10;33.90
1025;DHT22;501;48.214;11.350;2023-04-06T03:42:58;-0.10;33.80
1025;DHT22;501;48.214;11.350;2023-04-06T03:45:24;-0.10;33.80
1025;DHT22;501;48.214;11.350;2023-04-06T03:47:49;-0.10;33.40
1025;DHT22;501;48.214;11.350;2023-04-06T03:50:15;-0.10;33.70
1025;DHT22;501;48.214;11.350;2023-04-06T03:52:41;-0.10;33.80
1025;DHT22;501;48.214;11.350;2023-04-06T03:55:07;-0.10;33.80
1025;DHT22;501;48.214;11.350;2023-04-06T03:57:33;-0.20;33.60
1025;DHT22;501;48.214;11.350;2023-04-06T03:59:58;-0.20;33.60
1025;DHT22;501;48.214;11.350;2023-04-06T04:02:25;-0.20;33.40
1025;DHT22;501;48.214;11.350;2023-04-06T04:04:50;-0.20;33.60
1025;DHT22;501;48.214;11.350;2023-04-06T04:07:16;-0.10;33.70
1025;DHT22;501;48.214;11.350;2023-04-06T04:09:41;-0.20;33.60
1025;DHT22;501;48.214;11.350;2023-04-06T04:12:07;-0.20;33.80
1025;DHT22;501;48.214;11.350;2023-04-06T04:14:33;-0.20;33.90
1025;DHT22;501;48.214;11.350;2023-04-06T04:16:58;-0.20;33.80
1025;DHT22;501;48.214;11.350;2023-04-06T04:19:24;-0.20;33.90
1025;DHT22;501;48.214;11.350;2023-04-06T04:21:50;-0.30;33.80
1025;DHT22;501;48.214;11.350;2023-04-06T04:24:15;-0.20;34.20
1025;DHT22;501;48.214;11.350;2023-04-06T04:26:41;-0.20;34.00
1025;DHT22;501;48.214;11.350;2023-04-06T04:29:07;-0.20;33.90
1025;DHT22;501;48.214;11.350;2023-04-06T04:31:32;-0.20;33.90
1025;DHT22;501;48.214;11.350;2023-04-06T04:33:59;-0.30;33.60
1025;DHT22;501;48.214;11.350;2023-04-06T04:36:25;-0.30;33.90
1025;DHT22;501;48.214;11.350;2023-04-06T04:38:54;-0.30;34.30
1025;DHT22;501;48.214;11.350;2023-04-06T04:41:20;-0.30;34.40
1025;DHT22;501;48.214;11.350;2023-04-06T04:43:45;-0.30;34.50
1025;DHT22;501;48.214;11.350;2023-04-06T04:46:11;-0.30;34.70
1025;DHT22;501;48.214;11.350;2023-04-06T04:48:37;-0.30;35.10
1025;DHT22;501;48.214;11.350;2023-04-06T04:51:04;-0.30;35.10
1025;DHT22;501;48.214;11.350;2023-04-06T04:53:29;-0.30;34.90
1025;DHT22;501;48.214;11.350;2023-04-06T04:55:55;-0.30;35.10
1025;DHT22;501;48.214;11.350;2023-04-06T04:58:21;-0.30;35.10
1025;DHT22;501;48.214;11.350;2023-04-06T05:00:46;-0.30;35.50
1025;DHT22;501;48.214;11.350;2023-04-06T05:03:25;-0.30;35.20
1025;DHT22;501;48.214;11.350;2023-04-06T05:05:52;-0.30;35.20
1025;DHT22;501;48.214;11.350;2023-04-06T05:08:18;-0.30;35.40
1025;DHT22;501;48.214;11.350;2023-04-06T05:10:43;-0.30;35.40
1025;DHT22;501;48.214;11.350;2023-04-06T05:13:13;-0.30;35.30
1025;DHT22;501;48.214;11.350;2023-04-06T05:15:39;-0.30;35.60
1025;DHT22;501;48.214;11.350;2023-04-06T05:18:09;-0.30;35.60
1025;DHT22;501;48.214;11.350;2023-04-06T05:20:35;-0.20;35.80
1025;DHT22;501;48.214;11.350;2023-04-06T05:23:01;-0.10;36.30
1025;DHT22;501;48.214;11.350;2023-04-06T05:25:27;-0.10;36.10
1025;DHT22;501;48.214;11.350;2023-04-06T05:27:53;-0.10;36.00
1025;DHT22;501;48.214;11.350;2023-04-06T05:30:19;-0.10;35.70
1025;DHT22;501;48.214;11.350;2023-04-06T05:32:46;0.00;35.80
1025;DHT22;501;48.214;11.350;2023-04-06T05:35:12;0.00;35.20
1025;DHT22;501;48.214;11.350;2023-04-06T05:37:38;0.00;35.70
1025;DHT22;501;48.214;11.350;2023-04-06T05:40:04;0.00;35.70
1025;DHT22;501;48.214;11.350;2023-04-06T05:42:40;0.00;35.80
1025;DHT22;501;48.214;11.350;2023-04-06T05:45:08;0.10;35.80
1025;DHT22;501;48.214;11.350;2023-04-06T05:47:35;0.10;35.60
1025;DHT22;501;48.214;11.350;2023-04-06T05:50:00;0.10;35.80
1025;DHT22;501;48.214;11.350;2023-04-06T05:52:26;0.10;36.00
1025;DHT22;501;48.214;11.350;2023-04-06T05:54:52;0.20;36.10
1025;DHT22;501;48.214;11.350;2023-04-06T05:57:17;0.20;36.40
1025;DHT22;501;48.214;11.350;2023-04-06T05:59:43;0.30;36.40
1025;DHT22;501;48.214;11.350;2023-04-06T06:02:09;0.30;36.40
1025;DHT22;501;48.214;11.350;2023-04-06T06:04:35;0.40;36.70
1025;DHT22;501;48.214;11.350;2023-04-06T06:07:01;0.40;36.50
1025;DHT22;501;48.214;11.350;2023-04-06T06:09:27;0.50;36.60
1025;DHT22;501;48.214;11.350;2023-04-06T06:11:53;0.50;36.90
1025;DHT22;501;48.214;11.350;2023-04-06T06:14:18;0.60;37.10
1025;DHT22;501;48.214;11.350;2023-04-06T06:16:44;0.70;37.40
1025;DHT22;501;48.214;11.350;2023-04-06T06:19:09;0.70;37.50
1025;DHT22;501;48.214;11.350;2023-04-06T06:21:35;0.80;37.50
1025;DHT22;501;48.214;11.350;2023-04-06T06:24:01;0.90;37.60
1025;DHT22;501;48.214;11.350;2023-04-06T06:26:27;1.00;37.90
1025;DHT22;501;48.214;11.350;2023-04-06T06:28:53;1.10;37.80
1025;DHT22;501;48.214;11.350;2023-04-06T06:31:18;1.20;38.10
1025;DHT22;501;48.214;11.350;2023-04-06T06:33:46;1.20;38.10
1025;DHT22;501;48.214;11.350;2023-04-06T06:36:16;1.30;38.10
1025;DHT22;501;48.214;11.350;2023-04-06T06:38:42;1.40;38.10
1025;DHT22;501;48.214;11.350;2023-04-06T06:41:07;1.60;38.30
1025;DHT22;501;48.214;11.350;2023-04-06T06:43:33;1.70;38.20
1025;DHT22;501;48.214;11.350;2023-04-06T06:45:58;1.80;38.60
1025;DHT22;501;48.214;11.350;2023-04-06T06:48:24;1.90;38.00
1025;DHT22;501;48.214;11.350;2023-04-06T06:50:50;2.00;37.90
1025;DHT22;501;48.214;11.350;2023-04-06T06:53:16;2.10;37.40
1025;DHT22;501;48.214;11.350;2023-04-06T06:55:42;2.20;37.30
1025;DHT22;501;48.214;11.350;2023-04-06T06:58:09;2.30;37.10
1025;DHT22;501;48.214;11.350;2023-04-06T07:00:35;2.40;36.90
1025;DHT22;501;48.214;11.350;2023-04-06T07:03:01;2.50;36.60
1025;DHT22;501;48.214;11.350;2023-04-06T07:05:26;2.60;36.10
1025;DHT22;501;48.214;11.350;2023-04-06T07:07:52;2.70;35.80
1025;DHT22;501;48.214;11.350;2023-04-06T07:10:18;2.80;35.00
1025;DHT22;501;48.214;11.350;2023-04-06T07:12:44;2.90;35.20
1025;DHT22;501;48.214;11.350;2023-04-06T07:15:10;2.90;35.10
1025;DHT22;501;48.214;11.350;2023-04-06T07:17:35;3.00;35.20
1025;DHT22;501;48.214;11.350;2023-04-06T07:20:01;3.00;35.20
1025;DHT22;501;48.214;11.350;2023-04-06T07:22:27;3.10;35.90
1025;DHT22;501;48.214;11.350;2023-04-06T07:24:52;3.20;35.60
1025;DHT22;501;48.214;11.350;2023-04-06T07:27:18;3.30;35.50
1025;DHT22;501;48.214;11.350;2023-04-06T07:29:44;3.40;35.60
1025;DHT22;501;48.214;11.350;2023-04-06T07:32:10;3.60;35.70
1025;DHT22;501;48.214;11.350;2023-04-06T07:34:36;3.70;35.80
1025;DHT22;501;48.214;11.350;2023-04-06T07:37:01;3.90;36.00
1025;DHT22;501;48.214;11.350;2023-04-06T07:39:28;4.00;35.30
1025;DHT22;501;48.214;11.350;2023-04-06T07:41:54;4.10;34.30
1025;DHT22;501;48.214;11.350;2023-04-06T07:44:20;4.20;34.60
1025;DHT22;501;48.214;11.350;2023-04-06T07:46:45;4.20;34.00
1025;DHT22;501;48.214;11.350;2023-04-06T07:49:11;4.30;34.20
1025;DHT22;501;48.214;11.350;2023-04-06T07:51:38;4.40;32.60
1025;DHT22;501;48.214;11.350;2023-04-06T07:54:04;4.50;31.60
1025;DHT22;501;48.214;11.350;2023-04-06T07:56:30;4.50;31.30
1025;DHT22;501;48.214;11.350;2023-04-06T07:58:56;4.60;31.40
1025;DHT22;501;48.214;11.350;2023-04-06T08:01:22;4.60;31.30
1025;DHT22;501;48.214;11.350;2023-04-06T08:03:48;4.60;31.30
1025;DHT22;501;48.214;11.350;2023-04-06T08:06:14;4.70;31.70
1025;DHT22;501;48.214;11.350;2023-04-06T08:08:40;4.80;30.70
1025;DHT22;501;48.214;11.350;2023-04-06T08:11:06;4.90;30.80
1025;DHT22;501;48.214;11.350;2023-04-06T08:13:32;4.90;30.40
1025;DHT22;501;48.214;11.350;2023-04-06T08:15:59;5.00;30.40
1025;DHT22;501;48.214;11.350;2023-04-06T08:18:25;5.00;30.80
1025;DHT22;501;48.214;11.350;2023-04-06T08:20:51;5.00;29.90
1025;DHT22;501;48.214;11.350;2023-04-06T08:23:17;5.10;30.00
1025;DHT22;501;48.214;11.350;2023-04-06T08:25:43;5.20;29.80
1025;DHT22;501;48.214;11.350;2023-04-06T08:28:09;5.30;30.30
1025;DHT22;501;48.214;11.350;2023-04-06T08:30:35;5.30;29.70
1025;DHT22;501;48.214;11.350;2023-04-06T08:33:01;5.40;29.10
1025;DHT22;501;48.214;11.350;2023-04-06T08:35:27;5.50;28.70
1025;DHT22;501;48.214;11.350;2023-04-06T08:37:52;5.60;28.80
1025;DHT22;501;48.214;11.350;2023-04-06T08:40:18;5.60;28.40
1025;DHT22;501;48.214;11.350;2023-04-06T08:42:52;5.70;28.40
1025;DHT22;501;48.214;11.350;2023-04-06T08:45:18;5.70;27.50
1025;DHT22;501;48.214;11.350;2023-04-06T08:47:52;5.80;27.30
1025;DHT22;501;48.214;11.350;2023-04-06T08:50:19;5.90;27.40
1025;DHT22;501;48.214;11.350;2023-04-06T08:52:47;6.00;26.50
1025;DHT22;501;48.214;11.350;2023-04-06T08:55:13;6.10;26.40
1025;DHT22;501;48.214;11.350;2023-04-06T08:57:39;6.20;26.20
1025;DHT22;501;48.214;11.350;2023-04-06T09:00:08;6.20;25.80
1025;DHT22;501;48.214;11.350;2023-04-06T09:02:39;6.30;25.50
1025;DHT22;501;48.214;11.350;2023-04-06T09:05:07;6.40;24.90
1025;DHT22;501;48.214;11.350;2023-04-06T09:07:33;6.40;24.40
1025;DHT22;501;48.214;11.350;2023-04-06T09:09:58;6.50;24.50
1025;DHT22;501;48.214;11.350;2023-04-06T09:12:28;6.60;24.40
1025;DHT22;501;48.214;11.350;2023-04-06T09:14:55;6.60;24.10
1025;DHT22;501;48.214;11.350;2023-04-06T09:17:29;6.70;23.00
1025;DHT22;501;48.214;11.350;2023-04-06T09:19:56;6.80;22.40
1025;DHT22;501;48.214;11.350;2023-04-06T09:22:22;6.80;22.30
1025;DHT22;501;48.214;11.350;2023-04-06T09:24:51;6.80;22.60
1025;DHT22;501;48.214;11.350;2023-04-06T09:27:18;6.90;21.50
1025;DHT22;501;48.214;11.350;2023-04-06T09:30:09;7.00;22.30
1025;DHT22;501;48.214;11.350;2023-04-06T09:32:55;7.10;21.70
1025;DHT22;501;48.214;11.350;2023-04-06T09:35:22;7.30;21.50
1025;DHT22;501;48.214;11.350;2023-04-06T09:37:49;7.30;21.50
1025;DHT22;501;48.214;11.350;2023-04-06T09:40:15;7.30;21.00
1025;DHT22;501;48.214;11.350;2023-04-06T09:42:45;7.40;21.30
1025;DHT22;501;48.214;11.350;2023-04-06T09:45:12;7.40;21.30
1025;DHT22;501;48.214;11.350;2023-04-06T09:47:40;7.50;21.30
1025;DHT22;501;48.214;11.350;2023-04-06T09:50:10;7.50;21.00
1025;DHT22;501;48.214;11.350;2023-04-06T09:52:46;7.60;22.60
1025;DHT22;501;48.214;11.350;2023-04-06T09:55:20;7.70;22.20
1025;DHT22;501;48.214;11.350;2023-04-06T09:58:15;7.80;21.90
1025;DHT22;501;48.214;11.350;2023-04-06T10:00:48;7.90;21.80
1025;DHT22;501;48.214;11.350;2023-04-06T10:04:02;8.00;21.60
1025;DHT22;501;48.214;11.350;2023-04-06T10:06:33;8.10;21.10
1025;DHT22;501;48.214;11.350;2023-04-06T10:09:02;8.20;20.30
1025;DHT22;501;48.214;11.350;2023-04-06T10:11:30;8.30;19.90
1025;DHT22;501;48.214;11.350;2023-04-06T10:13:56;8.40;20.90
1025;DHT22;501;48.214;11.350;2023-04-06T10:16:22;8.50;20.10
1025;DHT22;501;48.214;11.350;2023-04-06T10:18:54;8.70;19.60
1025;DHT22;501;48.214;11.350;2023-04-06T10:21:24;8.80;19.80
1025;DHT22;501;48.214;11.350;2023-04-06T10:23:55;8.90;19.50
1025;DHT22;501;48.214;11.350;2023-04-06T10:26:23;8.90;18.50
1025;DHT22;501;48.214;11.350;2023-04-06T10:28:50;9.00;19.80
1025;DHT22;501;48.214;11.350;2023-04-06T10:31:24;9.00;18.10
1025;DHT22;501;48.214;11.350;2023-04-06T10:34:01;9.00;18.80
1025;DHT22;501;48.214;11.350;2023-04-06T10:36:31;9.10;17.00
1025;DHT22;501;48.214;11.350;2023-04-06T10:38:59;9.10;17.40
1025;DHT22;501;48.214;11.350;2023-04-06T10:41:50;9.00;17.70
1025;DHT22;501;48.214;11.350;2023-04-06T10:44:23;9.10;18.90
1025;DHT22;501;48.214;11.350;2023-04-06T10:46:56;9.20;19.40
1025;DHT22;501;48.214;11.350;2023-04-06T10:49:22;9.30;18.30
1025;DHT22;501;48.214;11.350;2023-04-06T10:51:54;9.40;17.90
1025;DHT22;501;48.214;11.350;2023-04-06T10:54:24;9.50;17.70
1025;DHT22;501;48.214;11.350;2023-04-06T10:56:50;9.70;17.90
1025;DHT22;501;48.214;11.350;2023-04-06T10:59:21;9.70;16.80
1025;DHT22;501;48.214;11.350;2023-04-06T11:01:47;9.80;16.80
1025;DHT22;501;48.214;11.350;2023-04-06T11:04:19;9.80;16.80
1025;DHT22;501;48.214;11.350;2023-04-06T11:06:49;9.70;17.30
1025;DHT22;501;48.214;11.350;2023-04-06T11:09:26;9.90;17.30
1025;DHT22;501;48.214;11.350;2023-04-06T11:11:52;10.00;16.80
1025;DHT22;501;48.214;11.350;2023-04-06T11:14:18;10.20;16.30
1025;DHT22;501;48.214;11.350;2023-04-06T11:16:46;10.30;16.60
1025;DHT22;501;48.214;11.350;2023-04-06T11:19:14;10.30;16.40
1025;DHT22;501;48.214;11.350;2023-04-06T11:21:44;10.30;16.40
1025;DHT22;501;48.214;11.350;2023-04-06T11:24:23;10.40;14.80
1025;DHT22;501;48.214;11.350;2023-04-06T11:26:51;10.50;16.60
1025;DHT22;501;48.214;11.350;2023-04-06T11:29:19;10.50;16.50
1025;DHT22;501;48.214;11.350;2023-04-06T11:31:49;10.70;15.40
1025;DHT22;501;48.214;11.350;2023-04-06T11:34:22;10.70;16.00
1025;DHT22;501;48.214;11.350;2023-04-06T11:36:53;10.80;15.30
1025;DHT22;501;48.214;11.350;2023-04-06T11:39:21;10.80;15.00
1025;DHT22;501;48.214;11.350;2023-04-06T11:41:49;10.70;16.10
1025;DHT22;501;48.214;11.350;2023-04-06T11:44:15;10.70;15.60
1025;DHT22;501;48.214;11.350;2023-04-06T11:46:41;10.70;16.70
1025;DHT22;501;48.214;11.350;2023-04-06T11:49:16;10.70;15.20
1025;DHT22;501;48.214;11.350;2023-04-06T11:51:42;10.80;16.40
1025;DHT22;501;48.214;11.350;2023-04-06T11:54:07;10.80;16.00
1025;DHT22;501;48.214;11.350;2023-04-06T11:56:33;11.00;16.60
1025;DHT22;501;48.214;11.350;2023-04-06T11:58:59;11.20;15.40
1025;DHT22;501;48.214;11.350;2023-04-06T12:01:25;11.40;13.40
1025;DHT22;501;48.214;11.350;2023-04-06T12:03:52;11.50;14.80
1025;DHT22;501;48.214;11.350;2023-04-06T12:06:18;11.70;13.40
1025;DHT22;501;48.214;11.350;2023-04-06T12:08:44;12.00;14.90
1025;DHT22;501;48.214;11.350;2023-04-06T12:11:10;12.30;14.50
1025;DHT22;501;48.214;11.350;2023-04-06T12:13:37;12.60;15.60
1025;DHT22;501;48.214;11.350;2023-04-06T12:16:02;12.90;13.80
1025;DHT22;501;48.214;11.350;2023-04-06T12:18:29;13.30;13.00
1025;DHT22;501;48.214;11.350;2023-04-06T12:20:55;13.60;12.70
1025;DHT22;501;48.214;11.350;2023-04-06T12:23:21;13.80;12.70
1025;DHT22;501;48.214;11.350;2023-04-06T12:25:46;14.10;11.60
1025;DHT22;501;48.214;11.350;2023-04-06T12:28:12;14.10;10.60
1025;DHT22;501;48.214;11.350;2023-04-06T12:30:38;13.90;11.20
1025;DHT22;501;48.214;11.350;2023-04-06T12:33:06;14.10;10.70
1025;DHT22;501;48.214;11.350;2023-04-06T12:35:36;14.20;13.00
1025;DHT22;501;48.214;11.350;2023-04-06T12:38:02;14.50;13.60
1025;DHT22;501;48.214;11.350;2023-04-06T12:40:28;15.00;12.00
1025;DHT22;501;48.214;11.350;2023-04-06T12:42:54;15.20;12.10
1025;DHT22;501;48.214;11.350;2023-04-06T12:45:20;15.60;11.20
1025;DHT22;501;48.214;11.350;2023-04-06T12:47:45;15.70;10.80
1025;DHT22;501;48.214;11.350;2023-04-06T12:50:11;15.60;11.20
1025;DHT22;501;48.214;11.350;2023-04-06T12:52:37;15.70;10.80
1025;DHT22;501;48.214;11.350;2023-04-06T12:55:03;15.90;11.00
1025;DHT22;501;48.214;11.350;2023-04-06T12:57:30;16.10;11.40
1025;DHT22;501;48.214;11.350;2023-04-06T12:59:56;16.40;11.10
1025;DHT22;501;48.214;11.350;2023-04-06T13:02:22;16.70;9.90
1025;DHT22;501;48.214;11.350;2023-04-06T13:04:51;16.80;10.90
1025;DHT22;501;48.214;11.350;2023-04-06T13:07:17;16.90;10.70
1025;DHT22;501;48.214;11.350;2023-04-06T13:09:42;17.30;14.10
1025;DHT22;501;48.214;11.350;2023-04-06T13:12:08;17.70;13.40
1025;DHT22;501;48.214;11.350;2023-04-06T13:14:34;18.00;9.50
1025;DHT22;501;48.214;11.350;2023-04-06T13:17:00;18.30;10.40
1025;DHT22;501;48.214;11.350;2023-04-06T13:19:26;18.40;8.50
1025;DHT22;501;48.214;11.350;2023-04-06T13:21:51;18.00;7.10
1025;DHT22;501;48.214;11.350;2023-04-06T13:24:17;17.40;8.80
1025;DHT22;501;48.214;11.350;2023-04-06T13:26:44;16.90;9.40
1025;DHT22;501;48.214;11.350;2023-04-06T13:29:10;16.60;10.10
1025;DHT22;501;48.214;11.350;2023-04-06T13:31:36;16.60;9.90
1025;DHT22;501;48.214;11.350;2023-04-06T13:34:02;16.70;10.10
1025;DHT22;501;48.214;11.350;2023-04-06T13:36:27;17.00;10.70
1025;DHT22;501;48.214;11.350;2023-04-06T13:38:53;17.30;8.90
1025;DHT22;501;48.214;11.350;2023-04-06T13:41:21;17.60;9.30
1025;DHT22;501;48.214;11.350;2023-04-06T13:43:47;17.90;8.70
1025;DHT22;501;48.214;11.350;2023-04-06T13:46:13;17.80;9.70
1025;DHT22;501;48.214;11.350;2023-04-06T13:48:39;17.60;8.10
1025;DHT22;501;48.214;11.350;2023-04-06T13:51:11;17.10;8.40
1025;DHT22;501;48.214;11.350;2023-04-06T13:53:38;16.40;9.50
1025;DHT22;501;48.214;11.350;2023-04-06T13:56:03;16.10;9.40
1025;DHT22;501;48.214;11.350;2023-04-06T13:58:29;16.10;9.20
1025;DHT22;501;48.214;11.350;2023-04-06T14:01:02;16.20;8.70
1025;DHT22;501;48.214;11.350;2023-04-06T14:03:27;16.60;10.10
1025;DHT22;501;48.214;11.350;2023-04-06T14:05:53;16.90;9.40
1025;DHT22;501;48.214;11.350;2023-04-06T14:08:18;17.20;9.60
1025;DHT22;501;48.214;11.350;2023-04-06T14:10:44;17.30;7.50
1025;DHT22;501;48.214;11.350;2023-04-06T14:13:10;16.90;9.00
1025;DHT22;501;48.214;11.350;2023-04-06T14:15:37;16.60;8.80
1025;DHT22;501;48.214;11.350;2023-04-06T14:18:02;16.60;9.00
1025;DHT22;501;48.214;11.350;2023-04-06T14:20:30;16.80;7.60
1025;DHT22;501;48.214;11.350;2023-04-06T14:22:56;17.00;8.30
1025;DHT22;501;48.214;11.350;2023-04-06T14:25:21;17.20;8.20
1025;DHT22;501;48.214;11.350;2023-04-06T14:27:47;17.20;8.10
1025;DHT22;501;48.214;11.350;2023-04-06T14:30:13;17.00;7.60
1025;DHT22;501;48.214;11.350;2023-04-06T14:32:39;16.60;7.00
1025;DHT22;501;48.214;11.350;2023-04-06T14:35:05;16.10;7.40
1025;DHT22;501;48.214;11.350;2023-04-06T14:37:31;16.10;8.80
1025;DHT22;501;48.214;11.350;2023-04-06T14:39:56;16.40;8.20
1025;DHT22;501;48.214;11.350;2023-04-06T14:42:22;16.80;8.00
1025;DHT22;501;48.214;11.350;2023-04-06T14:44:47;17.30;6.80
1025;DHT22;501;48.214;11.350;2023-04-06T14:47:14;17.50;7.40
1025;DHT22;501;48.214;11.350;2023-04-06T14:49:46;17.80;6.70
1025;DHT22;501;48.214;11.350;2023-04-06T14:52:12;17.80;7.80
1025;DHT22;501;48.214;11.350;2023-04-06T14:54:38;17.80;6.60
1025;DHT22;501;48.214;11.350;2023-04-06T14:57:04;17.80;8.10
1025;DHT22;501;48.214;11.350;2023-04-06T14:59:29;17.80;7.30
1025;DHT22;501;48.214;11.350;2023-04-06T15:01:58;17.80;7.20
1025;DHT22;501;48.214;11.350;2023-04-06T15:04:25;17.60;7.30
1025;DHT22;501;48.214;11.350;2023-04-06T15:06:51;17.60;5.90
1025;DHT22;501;48.214;11.350;2023-04-06T15:09:16;17.40;7.00
1025;DHT22;501;48.214;11.350;2023-04-06T15:11:42;17.20;7.30
1025;DHT22;501;48.214;11.350;2023-04-06T15:14:07;17.10;6.60
1025;DHT22;501;48.214;11.350;2023-04-06T15:16:33;17.10;7.90
1025;DHT22;501;48.214;11.350;2023-04-06T15:18:59;17.10;7.70
1025;DHT22;501;48.214;11.350;2023-04-06T15:21:25;17.10;7.10
1025;DHT22;501;48.214;11.350;2023-04-06T15:23:52;16.80;7.50
1025;DHT22;501;48.214;11.350;2023-04-06T15:26:18;16.20;7.40
1025;DHT22;501;48.214;11.350;2023-04-06T15:28:43;15.80;8.30
1025;DHT22;501;48.214;11.350;2023-04-06T15:31:19;15.80;7.90
1025;DHT22;501;48.214;11.350;2023-04-06T15:33:47;15.70;7.40
1025;DHT22;501;48.214;11.350;2023-04-06T15:36:27;15.70;9.10
1025;DHT22;501;48.214;11.350;2023-04-06T15:38:59;15.50;8.30
1025;DHT22;501;48.214;11.350;2023-04-06T15:41:25;15.20;7.10
1025;DHT22;501;48.214;11.350;2023-04-06T15:43:52;15.10;8.40
1025;DHT22;501;48.214;11.350;2023-04-06T15:46:18;15.20;8.10
1025;DHT22;501;48.214;11.350;2023-04-06T15:48:44;15.10;9.30
1025;DHT22;501;48.214;11.350;2023-04-06T15:51:10;14.90;9.90
1025;DHT22;501;48.214;11.350;2023-04-06T15:53:36;14.70;9.00
1025;DHT22;501;48.214;11.350;2023-04-06T15:56:05;14.70;9.30
1025;DHT22;501;48.214;11.350;2023-04-06T15:58:32;14.50;8.20
1025;DHT22;501;48.214;11.350;2023-04-06T16:00:58;14.30;8.20
1025;DHT22;501;48.214;11.350;2023-04-06T16:03:24;14.10;9.00
1025;DHT22;501;48.214;11.350;2023-04-06T16:05:51;14.00;9.70
1025;DHT22;501;48.214;11.350;2023-04-06T16:08:17;13.90;10.50
1025;DHT22;501;48.214;11.350;2023-04-06T16:10:44;13.90;9.40
1025;DHT22;501;48.214;11.350;2023-04-06T16:13:10;13.80;9.30